Terminal Aerodrome Forecast
Issued by NWS Duluth, MN

Home | Current Version | Previous Version | Text Only | Print | Product List | Glossary On
Versions: 1 2 3 4 5 6 7 8 9 10 11 12 13 14 15 16 17 18 19 20 21 22 23 24 25 26 27 28
000
FTUS43 KDLH 221300 AAA
TAFDLH
TAF AMD
KDLH 221300Z 2213/2312 30016G26KT P6SM OVC012
      TEMPO 2214/2217 31020G30KT
     FM221800 32018G27KT P6SM SCT025
     FM222100 34013G20KT P6SM FEW040
     FM230000 34008KT P6SM SKC=

USA.gov is the U.S. government's official web portal to all federal, state and local government web resources and services.